sensor_id;sensor_type;location;lat;lon;timestamp;pressure;altitude;pressure_sealevel;temperature;humidity
9139;BME280;4604;48.616;9.548;2022-10-22T00:01:28;96725.97;;;13.91;100.00
9139;BME280;4604;48.616;9.548;2022-10-22T00:03:55;96698.44;;;13.76;100.00
9139;BME280;4604;48.616;9.548;2022-10-22T00:06:21;96743.72;;;13.99;100.00
9139;BME280;4604;48.616;9.548;2022-10-22T00:08:48;96706.25;;;13.78;100.00
9139;BME280;4604;48.616;9.548;2022-10-22T00:11:17;96750.38;;;13.95;100.00
9139;BME280;4604;48.616;9.548;2022-10-22T00:13:46;96726.13;;;13.82;100.00
9139;BME280;4604;48.616;9.548;2022-10-22T00:16:13;96726.13;;;13.82;100.00
9139;BME280;4604;48.616;9.548;2022-10-22T00:18:39;96755.50;;;13.97;100.00
9139;BME280;4604;48.616;9.548;2022-10-22T00:21:07;96731.94;;;13.85;100.00
9139;BME280;4604;48.616;9.548;2022-10-22T00:23:34;96718.50;;;13.79;100.00
9139;BME280;4604;48.616;9.548;2022-10-22T00:26:02;96731.63;;;13.88;100.00
9139;BME280;4604;48.616;9.548;2022-10-22T00:28:28;96729.13;;;13.87;100.00
9139;BME280;4604;48.616;9.548;2022-10-22T00:30:57;96727.63;;;13.84;100.00
9139;BME280;4604;48.616;9.548;2022-10-22T00:33:25;96706.91;;;13.72;100.00
9139;BME280;4604;48.616;9.548;2022-10-22T00:35:53;96753.16;;;14.02;100.00
9139;BME280;4604;48.616;9.548;2022-10-22T00:38:20;96716.19;;;13.76;100.00
9139;BME280;4604;48.616;9.548;2022-10-22T00:40:47;96738.25;;;13.93;100.00
9139;BME280;4604;48.616;9.548;2022-10-22T00:43:16;96739.91;;;14.02;100.00
9139;BME280;4604;48.616;9.548;2022-10-22T00:45:43;96743.19;;;13.87;100.00
9139;BME280;4604;48.616;9.548;2022-10-22T00:48:14;96734.59;;;13.85;100.00
9139;BME280;4604;48.616;9.548;2022-10-22T00:50:45;96717.84;;;13.85;100.00
9139;BME280;4604;48.616;9.548;2022-10-22T00:53:15;96725.31;;;13.81;100.00
9139;BME280;4604;48.616;9.548;2022-10-22T00:55:43;96720.34;;;13.78;100.00
9139;BME280;4604;48.616;9.548;2022-10-22T00:58:12;96712.19;;;13.80;100.00
9139;BME280;4604;48.616;9.548;2022-10-22T01:00:39;96712.53;;;13.77;100.00
9139;BME280;4604;48.616;9.548;2022-10-22T01:03:06;96681.19;;;13.64;100.00
9139;BME280;4604;48.616;9.548;2022-10-22T01:05:40;96670.25;;;13.59;100.00
9139;BME280;4604;48.616;9.548;2022-10-22T01:08:15;96700.78;;;13.71;100.00
9139;BME280;4604;48.616;9.548;2022-10-22T01:10:53;96681.69;;;13.51;100.00
9139;BME280;4604;48.616;9.548;2022-10-22T01:13:32;96693.78;;;13.62;100.00
9139;BME280;4604;48.616;9.548;2022-10-22T01:16:09;96711.03;;;13.66;100.00
9139;BME280;4604;48.616;9.548;2022-10-22T01:18:42;96731.59;;;13.64;100.00
9139;BME280;4604;48.616;9.548;2022-10-22T01:21:23;96733.22;;;13.65;100.00
9139;BME280;4604;48.616;9.548;2022-10-22T01:24:06;96747.50;;;13.64;100.00
9139;BME280;4604;48.616;9.548;2022-10-22T01:26:43;96727.59;;;13.52;100.00
9139;BME280;4604;48.616;9.548;2022-10-22T01:29:21;96726.28;;;13.64;100.00
9139;BME280;4604;48.616;9.548;2022-10-22T01:31:55;96718.66;;;13.61;100.00
9139;BME280;4604;48.616;9.548;2022-10-22T01:34:24;96724.47;;;13.64;100.00
9139;BME280;4604;48.616;9.548;2022-10-22T01:36:53;96728.25;;;13.62;100.00
9139;BME280;4604;48.616;9.548;2022-10-22T01:39:21;96702.53;;;13.46;100.00
9139;BME280;4604;48.616;9.548;2022-10-22T01:41:49;96720.31;;;13.62;100.00
9139;BME280;4604;48.616;9.548;2022-10-22T01:44:28;96724.13;;;13.59;100.00
9139;BME280;4604;48.616;9.548;2022-10-22T01:47:05;96711.63;;;13.43;100.00
9139;BME280;4604;48.616;9.548;2022-10-22T01:49:43;96680.50;;;13.29;100.00
9139;BME280;4604;48.616;9.548;2022-10-22T01:52:21;96722.44;;;13.50;100.00
9139;BME280;4604;48.616;9.548;2022-10-22T01:54:52;96715.31;;;13.51;100.00
9139;BME280;4604;48.616;9.548;2022-10-22T01:57:28;96712.16;;;13.47;100.00
9139;BME280;4604;48.616;9.548;2022-10-22T02:00:03;96698.56;;;13.50;100.00
9139;BME280;4604;48.616;9.548;2022-10-22T02:02:36;96640.47;;;13.14;100.00
9139;BME280;4604;48.616;9.548;2022-10-22T02:05:09;96639.38;;;13.25;100.00
9139;BME280;4604;48.616;9.548;2022-10-22T02:07:40;96638.56;;;13.33;100.00
9139;BME280;4604;48.616;9.548;2022-10-22T02:10:09;96661.28;;;13.43;100.00
9139;BME280;4604;48.616;9.548;2022-10-22T02:12:39;96621.78;;;13.24;100.00
9139;BME280;4604;48.616;9.548;2022-10-22T02:15:11;96660.13;;;13.46;100.00
9139;BME280;4604;48.616;9.548;2022-10-22T02:17:38;96653.16;;;13.45;100.00
9139;BME280;4604;48.616;9.548;2022-10-22T02:20:11;96627.81;;;13.34;100.00
9139;BME280;4604;48.616;9.548;2022-10-22T02:22:41;96629.91;;;13.22;100.00
9139;BME280;4604;48.616;9.548;2022-10-22T02:25:09;96667.09;;;13.39;100.00
9139;BME280;4604;48.616;9.548;2022-10-22T02:27:40;96668.25;;;13.44;100.00
9139;BME280;4604;48.616;9.548;2022-10-22T02:30:12;96691.59;;;13.33;100.00
9139;BME280;4604;48.616;9.548;2022-10-22T02:32:44;96666.81;;;13.07;100.00
9139;BME280;4604;48.616;9.548;2022-10-22T02:35:18;96704.19;;;13.39;100.00
9139;BME280;4604;48.616;9.548;2022-10-22T02:37:47;96690.69;;;13.24;100.00
9139;BME280;4604;48.616;9.548;2022-10-22T02:40:15;96668.59;;;12.99;100.00
9139;BME280;4604;48.616;9.548;2022-10-22T02:42:45;96675.25;;;13.03;100.00
9139;BME280;4604;48.616;9.548;2022-10-22T02:45:15;96687.34;;;13.05;100.00
9139;BME280;4604;48.616;9.548;2022-10-22T02:47:47;96730.94;;;13.19;100.00
9139;BME280;4604;48.616;9.548;2022-10-22T02:50:14;96726.56;;;13.02;100.00
9139;BME280;4604;48.616;9.548;2022-10-22T02:52:42;96738.34;;;13.07;100.00
9139;BME280;4604;48.616;9.548;2022-10-22T02:55:09;96728.03;;;12.96;100.00
9139;BME280;4604;48.616;9.548;2022-10-22T02:57:37;96720.72;;;12.90;100.00
9139;BME280;4604;48.616;9.548;2022-10-22T03:00:05;96697.50;;;12.76;100.00
9139;BME280;4604;48.616;9.548;2022-10-22T03:02:34;96709.06;;;12.75;100.00
9139;BME280;4604;48.616;9.548;2022-10-22T03:05:02;96769.00;;;13.10;100.00
9139;BME280;4604;48.616;9.548;2022-10-22T03:07:29;96775.94;;;13.11;100.00
9139;BME280;4604;48.616;9.548;2022-10-22T03:09:56;96740.03;;;12.82;100.00
9139;BME280;4604;48.616;9.548;2022-10-22T03:12:22;96753.66;;;12.88;100.00
9139;BME280;4604;48.616;9.548;2022-10-22T03:14:49;96771.97;;;13.07;100.00
9139;BME280;4604;48.616;9.548;2022-10-22T03:17:16;96720.31;;;12.77;100.00
9139;BME280;4604;48.616;9.548;2022-10-22T03:19:45;96706.53;;;12.65;100.00
9139;BME280;4604;48.616;9.548;2022-10-22T03:22:14;96712.81;;;12.64;100.00
9139;BME280;4604;48.616;9.548;2022-10-22T03:24:46;96747.50;;;12.87;100.00
9139;BME280;4604;48.616;9.548;2022-10-22T03:27:16;96767.16;;;13.02;100.00
9139;BME280;4604;48.616;9.548;2022-10-22T03:29:43;96751.03;;;12.96;100.00
9139;BME280;4604;48.616;9.548;2022-10-22T03:32:11;96748.75;;;13.01;100.00
9139;BME280;4604;48.616;9.548;2022-10-22T03:34:38;96728.34;;;12.93;100.00
9139;BME280;4604;48.616;9.548;2022-10-22T03:37:07;96726.25;;;13.05;100.00
9139;BME280;4604;48.616;9.548;2022-10-22T03:39:35;96697.53;;;12.92;100.00
9139;BME280;4604;48.616;9.548;2022-10-22T03:42:06;96651.91;;;12.64;100.00
9139;BME280;4604;48.616;9.548;2022-10-22T03:44:34;96654.56;;;12.64;100.00
9139;BME280;4604;48.616;9.548;2022-10-22T03:47:06;96708.56;;;13.14;100.00
9139;BME280;4604;48.616;9.548;2022-10-22T03:49:33;96649.28;;;12.72;100.00
9139;BME280;4604;48.616;9.548;2022-10-22T03:52:04;96622.19;;;12.78;100.00
9139;BME280;4604;48.616;9.548;2022-10-22T03:54:34;96608.13;;;12.78;100.00
9139;BME280;4604;48.616;9.548;2022-10-22T03:57:01;96617.59;;;12.89;100.00
9139;BME280;4604;48.616;9.548;2022-10-22T03:59:37;96601.88;;;12.95;100.00
9139;BME280;4604;48.616;9.548;2022-10-22T04:02:04;96655.06;;;13.18;100.00
9139;BME280;4604;48.616;9.548;2022-10-22T04:04:31;96682.47;;;13.27;100.00
9139;BME280;4604;48.616;9.548;2022-10-22T04:06:58;96659.84;;;13.06;100.00
9139;BME280;4604;48.616;9.548;2022-10-22T04:09:25;96677.44;;;13.16;100.00
9139;BME280;4604;48.616;9.548;2022-10-22T04:11:53;96702.81;;;13.26;100.00
9139;BME280;4604;48.616;9.548;2022-10-22T04:14:20;96641.97;;;13.00;100.00
9139;BME280;4604;48.616;9.548;2022-10-22T04:16:47;96693.28;;;13.42;100.00
9139;BME280;4604;48.616;9.548;2022-10-22T04:19:14;96695.06;;;13.33;100.00
9139;BME280;4604;48.616;9.548;2022-10-22T04:21:41;96671.78;;;13.19;100.00
9139;BME280;4604;48.616;9.548;2022-10-22T04:24:08;96678.00;;;13.27;100.00
9139;BME280;4604;48.616;9.548;2022-10-22T04:26:36;96681.13;;;13.31;100.00
9139;BME280;4604;48.616;9.548;2022-10-22T04:29:05;96682.81;;;13.32;100.00
9139;BME280;4604;48.616;9.548;2022-10-22T04:31:32;96686.06;;;13.26;100.00
9139;BME280;4604;48.616;9.548;2022-10-22T04:33:59;96669.00;;;13.20;100.00
9139;BME280;4604;48.616;9.548;2022-10-22T04:36:27;96673.63;;;13.18;100.00
9139;BME280;4604;48.616;9.548;2022-10-22T04:38:56;96699.19;;;13.27;100.00
9139;BME280;4604;48.616;9.548;2022-10-22T04:41:27;96651.88;;;12.98;100.00
9139;BME280;4604;48.616;9.548;2022-10-22T04:43:55;96711.28;;;13.30;100.00
9139;BME280;4604;48.616;9.548;2022-10-22T04:46:24;96704.78;;;13.24;100.00
9139;BME280;4604;48.616;9.548;2022-10-22T04:48:51;96710.09;;;13.24;100.00
9139;BME280;4604;48.616;9.548;2022-10-22T04:51:20;96726.16;;;13.23;100.00
9139;BME280;4604;48.616;9.548;2022-10-22T04:53:47;96683.47;;;12.92;100.00
9139;BME280;4604;48.616;9.548;2022-10-22T04:56:20;96674.34;;;12.86;100.00
9139;BME280;4604;48.616;9.548;2022-10-22T04:58:48;96660.09;;;12.79;100.00
9139;BME280;4604;48.616;9.548;2022-10-22T05:01:17;96725.13;;;13.16;100.00
9139;BME280;4604;48.616;9.548;2022-10-22T05:03:48;96673.91;;;12.99;100.00
9139;BME280;4604;48.616;9.548;2022-10-22T05:06:22;96683.47;;;12.92;100.00
9139;BME280;4604;48.616;9.548;2022-10-22T05:08:52;96700.59;;;13.05;100.00
9139;BME280;4604;48.616;9.548;2022-10-22T05:11:23;96704.06;;;13.06;100.00
9139;BME280;4604;48.616;9.548;2022-10-22T05:13:50;96705.88;;;12.97;100.00
9139;BME280;4604;48.616;9.548;2022-10-22T05:16:19;96733.59;;;13.19;100.00
9139;BME280;4604;48.616;9.548;2022-10-22T05:18:47;96737.22;;;13.18;100.00
9139;BME280;4604;48.616;9.548;2022-10-22T05:21:18;96725.00;;;13.25;100.00
9139;BME280;4604;48.616;9.548;2022-10-22T05:23:46;96709.34;;;13.06;100.00
9139;BME280;4604;48.616;9.548;2022-10-22T05:26:15;96731.25;;;13.16;100.00
9139;BME280;4604;48.616;9.548;2022-10-22T05:28:42;96738.53;;;13.14;100.00
9139;BME280;4604;48.616;9.548;2022-10-22T05:31:10;96742.19;;;13.13;100.00
9139;BME280;4604;48.616;9.548;2022-10-22T05:33:38;96722.72;;;12.96;100.00
9139;BME280;4604;48.616;9.548;2022-10-22T05:36:10;96762.06;;;13.17;100.00
9139;BME280;4604;48.616;9.548;2022-10-22T05:38:38;96745.78;;;13.04;100.00
9139;BME280;4604;48.616;9.548;2022-10-22T05:42:33;96770.19;;;13.24;100.00
9139;BME280;4604;48.616;9.548;2022-10-22T05:44:41;96754.25;;;13.07;100.00
9139;BME280;4604;48.616;9.548;2022-10-22T05:47:37;96787.50;;;13.36;100.00
9139;BME280;4604;48.616;9.548;2022-10-22T05:50:22;96810.47;;;13.62;100.00
9139;BME280;4604;48.616;9.548;2022-10-22T05:52:50;96813.09;;;13.54;100.00
9139;BME280;4604;48.616;9.548;2022-10-22T05:55:17;96816.72;;;13.53;100.00
9139;BME280;4604;48.616;9.548;2022-10-22T05:57:44;96780.31;;;12.86;100.00
9139;BME280;4604;48.616;9.548;2022-10-22T06:00:11;96808.28;;;12.89;100.00
9139;BME280;4604;48.616;9.548;2022-10-22T06:02:38;96841.97;;;13.04;100.00
9139;BME280;4604;48.616;9.548;2022-10-22T06:05:11;96841.69;;;13.07;100.00
9139;BME280;4604;48.616;9.548;2022-10-22T06:07:38;96817.69;;;12.83;100.00
9139;BME280;4604;48.616;9.548;2022-10-22T06:10:15;96798.00;;;12.85;100.00
9139;BME280;4604;48.616;9.548;2022-10-22T06:12:42;96799.44;;;12.80;100.00
9139;BME280;4604;48.616;9.548;2022-10-22T06:15:11;96814.06;;;12.84;100.00
9139;BME280;4604;48.616;9.548;2022-10-22T06:17:38;96839.50;;;13.03;100.00
9139;BME280;4604;48.616;9.548;2022-10-22T06:20:09;96858.25;;;13.10;100.00
9139;BME280;4604;48.616;9.548;2022-10-22T06:22:35;96865.25;;;13.19;100.00
9139;BME280;4604;48.616;9.548;2022-10-22T06:25:03;96870.19;;;13.14;100.00
9139;BME280;4604;48.616;9.548;2022-10-22T06:27:31;96874.31;;;13.34;100.00
9139;BME280;4604;48.616;9.548;2022-10-22T06:29:58;96878.72;;;13.52;100.00
9139;BME280;4604;48.616;9.548;2022-10-22T06:32:24;96880.41;;;13.61;100.00
9139;BME280;4604;48.616;9.548;2022-10-22T06:34:51;96882.41;;;13.67;100.00
9139;BME280;4604;48.616;9.548;2022-10-22T06:37:18;96882.69;;;13.90;100.00
9139;BME280;4604;48.616;9.548;2022-10-22T06:39:45;96889.34;;;14.02;100.00
9139;BME280;4604;48.616;9.548;2022-10-22T06:42:11;96881.09;;;14.22;100.00
9139;BME280;4604;48.616;9.548;2022-10-22T06:44:39;96882.59;;;14.32;100.00
9139;BME280;4604;48.616;9.548;2022-10-22T06:47:06;96884.78;;;14.29;100.00
9139;BME280;4604;48.616;9.548;2022-10-22T06:49:33;96893.38;;;14.31;100.00
9139;BME280;4604;48.616;9.548;2022-10-22T06:52:00;96901.38;;;14.39;100.00
9139;BME280;4604;48.616;9.548;2022-10-22T06:54:26;96905.81;;;14.39;100.00
9139;BME280;4604;48.616;9.548;2022-10-22T06:56:53;96898.69;;;14.31;100.00
9139;BME280;4604;48.616;9.548;2022-10-22T06:59:20;96915.13;;;14.34;100.00
9139;BME280;4604;48.616;9.548;2022-10-22T07:01:48;96905.34;;;14.43;100.00
9139;BME280;4604;48.616;9.548;2022-10-22T07:04:15;96913.50;;;14.50;100.00
9139;BME280;4604;48.616;9.548;2022-10-22T07:06:42;96919.38;;;14.78;100.00
9139;BME280;4604;48.616;9.548;2022-10-22T07:09:10;96906.34;;;14.50;100.00
9139;BME280;4604;48.616;9.548;2022-10-22T07:11:40;96922.50;;;14.65;100.00
9139;BME280;4604;48.616;9.548;2022-10-22T07:14:07;96925.16;;;14.65;100.00
9139;BME280;4604;48.616;9.548;2022-10-22T07:16:34;96917.84;;;14.59;100.00
9139;BME280;4604;48.616;9.548;2022-10-22T07:19:03;96929.16;;;14.69;100.00
9139;BME280;4604;48.616;9.548;2022-10-22T07:21:30;96927.34;;;14.86;100.00
9139;BME280;4604;48.616;9.548;2022-10-22T07:23:57;96932.00;;;14.76;100.00
9139;BME280;4604;48.616;9.548;2022-10-22T07:26:25;96937.31;;;14.76;100.00
9139;BME280;4604;48.616;9.548;2022-10-22T07:28:55;96934.31;;;14.79;100.00
9139;BME280;4604;48.616;9.548;2022-10-22T07:31:22;96939.78;;;14.77;100.00
9139;BME280;4604;48.616;9.548;2022-10-22T07:33:48;96948.09;;;14.91;100.00
9139;BME280;4604;48.616;9.548;2022-10-22T07:36:17;96940.94;;;14.91;100.00
9139;BME280;4604;48.616;9.548;2022-10-22T07:38:44;96933.66;;;14.93;100.00
9139;BME280;4604;48.616;9.548;2022-10-22T07:41:11;96934.97;;;14.89;100.00
9139;BME280;4604;48.616;9.548;2022-10-22T07:43:38;96931.31;;;14.90;100.00
9139;BME280;4604;48.616;9.548;2022-10-22T07:46:05;96936.78;;;14.97;100.00
9139;BME280;4604;48.616;9.548;2022-10-22T07:48:33;96944.25;;;15.02;100.00
9139;BME280;4604;48.616;9.548;2022-10-22T07:51:00;96939.81;;;15.02;100.00
9139;BME280;4604;48.616;9.548;2022-10-22T07:53:28;96943.94;;;15.13;100.00
9139;BME280;4604;48.616;9.548;2022-10-22T07:55:55;96946.25;;;15.24;100.00
9139;BME280;4604;48.616;9.548;2022-10-22T07:58:23;96958.53;;;15.33;100.00
9139;BME280;4604;48.616;9.548;2022-10-22T08:00:50;96954.38;;;15.39;100.00
9139;BME280;4604;48.616;9.548;2022-10-22T08:03:20;96962.19;;;15.49;100.00
9139;BME280;4604;48.616;9.548;2022-10-22T08:05:47;96954.00;;;15.50;100.00
9139;BME280;4604;48.616;9.548;2022-10-22T08:08:15;96956.50;;;15.60;100.00
9139;BME280;4604;48.616;9.548;2022-10-22T08:10:45;96951.47;;;15.65;100.00
9139;BME280;4604;48.616;9.548;2022-10-22T08:13:12;96945.00;;;15.68;100.00
9139;BME280;4604;48.616;9.548;2022-10-22T08:15:41;96979.91;;;15.89;100.00
9139;BME280;4604;48.616;9.548;2022-10-22T08:18:14;96952.97;;;15.68;100.00
9139;BME280;4604;48.616;9.548;2022-10-22T08:20:41;96949.16;;;15.70;100.00
9139;BME280;4604;48.616;9.548;2022-10-22T08:23:14;96954.28;;;15.80;100.00
9139;BME280;4604;48.616;9.548;2022-10-22T08:25:41;96977.03;;;15.99;100.00
9139;BME280;4604;48.616;9.548;2022-10-22T08:28:15;96977.84;;;15.99;99.87
9139;BME280;4604;48.616;9.548;2022-10-22T08:30:42;96942.88;;;15.71;100.00
9139;BME280;4604;48.616;9.548;2022-10-22T08:33:11;96948.84;;;15.57;100.00
9139;BME280;4604;48.616;9.548;2022-10-22T08:35:38;96986.59;;;15.77;100.00
9139;BME280;4604;48.616;9.548;2022-10-22T08:38:06;96973.63;;;15.74;100.00
9139;BME280;4604;48.616;9.548;2022-10-22T08:40:36;96935.88;;;15.62;100.00
9139;BME280;4604;48.616;9.548;2022-10-22T08:43:36;96925.94;;;15.48;100.00
9139;BME280;4604;48.616;9.548;2022-10-22T08:46:18;96985.84;;;15.99;100.00
9139;BME280;4604;48.616;9.548;2022-10-22T08:48:52;96983.72;;;16.34;100.00
9139;BME280;4604;48.616;9.548;2022-10-22T08:51:22;96963.97;;;16.20;100.00
9139;BME280;4604;48.616;9.548;2022-10-22T08:54:09;96967.97;;;16.24;100.00
9139;BME280;4604;48.616;9.548;2022-10-22T08:56:43;96963.53;;;16.40;99.70
9139;BME280;4604;48.616;9.548;2022-10-22T08:59:20;96973.31;;;16.47;98.86
9139;BME280;4604;48.616;9.548;2022-10-22T09:01:51;96957.53;;;16.46;99.03
9139;BME280;4604;48.616;9.548;2022-10-22T09:04:25;96997.16;;;16.80;98.14
9139;BME280;4604;48.616;9.548;2022-10-22T09:06:55;96986.59;;;16.87;96.77
9139;BME280;4604;48.616;9.548;2022-10-22T09:09:26;96984.72;;;16.96;95.47
9139;BME280;4604;48.616;9.548;2022-10-22T09:11:57;96987.78;;;17.07;94.85
9139;BME280;4604;48.616;9.548;2022-10-22T09:14:26;96966.78;;;17.04;94.87
9139;BME280;4604;48.616;9.548;2022-10-22T09:17:12;96993.47;;;17.27;94.39
9139;BME280;4604;48.616;9.548;2022-10-22T09:19:49;96971.06;;;17.14;93.80
9139;BME280;4604;48.616;9.548;2022-10-22T09:22:26;96998.25;;;17.32;92.81
9139;BME280;4604;48.616;9.548;2022-10-22T09:24:58;96982.31;;;17.24;90.99
9139;BME280;4604;48.616;9.548;2022-10-22T09:27:29;97006.47;;;17.45;91.62
9139;BME280;4604;48.616;9.548;2022-10-22T09:29:59;96979.50;;;17.40;91.72
9139;BME280;4604;48.616;9.548;2022-10-22T09:32:27;97004.31;;;17.79;90.58
9139;BME280;4604;48.616;9.548;2022-10-22T09:34:55;96973.78;;;17.81;89.78
9139;BME280;4604;48.616;9.548;2022-10-22T09:37:26;97004.91;;;17.89;86.40
9139;BME280;4604;48.616;9.548;2022-10-22T09:39:54;97015.22;;;18.07;88.41
9139;BME280;4604;48.616;9.548;2022-10-22T09:42:22;96993.03;;;18.06;87.65
9139;BME280;4604;48.616;9.548;2022-10-22T09:44:52;97015.16;;;18.00;85.91
9139;BME280;4604;48.616;9.548;2022-10-22T09:47:32;96998.56;;;18.05;85.71
9139;BME280;4604;48.616;9.548;2022-10-22T09:50:25;97018.81;;;18.29;82.78
9139;BME280;4604;48.616;9.548;2022-10-22T09:52:59;97020.47;;;18.30;81.19
9139;BME280;4604;48.616;9.548;2022-10-22T09:55:26;97030.41;;;18.36;82.88
9139;BME280;4604;48.616;9.548;2022-10-22T09:57:54;97012.34;;;18.38;81.26
9139;BME280;4604;48.616;9.548;2022-10-22T10:00:22;97035.75;;;18.51;79.46
9139;BME280;4604;48.616;9.548;2022-10-22T10:02:54;96969.47;;;17.95;77.26
9139;BME280;4604;48.616;9.548;2022-10-22T10:05:27;97037.88;;;18.40;79.04
9139;BME280;4604;48.616;9.548;2022-10-22T10:07:54;96991.13;;;17.85;79.28
9139;BME280;4604;48.616;9.548;2022-10-22T10:10:32;97011.06;;;18.04;79.03
9139;BME280;4604;48.616;9.548;2022-10-22T10:13:13;97008.69;;;18.24;80.08
9139;BME280;4604;48.616;9.548;2022-10-22T10:15:49;96992.56;;;18.17;77.75
9139;BME280;4604;48.616;9.548;2022-10-22T10:18:27;97001.50;;;18.39;77.36
9139;BME280;4604;48.616;9.548;2022-10-22T10:21:07;97030.78;;;18.48;77.77
9139;BME280;4604;48.616;9.548;2022-10-22T10:23:47;96998.00;;;18.24;79.30
9139;BME280;4604;48.616;9.548;2022-10-22T10:26:22;97007.03;;;18.23;75.00
9139;BME280;4604;48.616;9.548;2022-10-22T10:29:03;96998.38;;;18.06;75.39
9139;BME280;4604;48.616;9.548;2022-10-22T10:31:43;97064.25;;;18.44;76.38
9139;BME280;4604;48.616;9.548;2022-10-22T10:34:27;97038.16;;;18.31;75.68
9139;BME280;4604;48.616;9.548;2022-10-22T10:37:14;97050.50;;;18.47;74.49
9139;BME280;4604;48.616;9.548;2022-10-22T10:40:10;96983.50;;;17.74;76.58
9139;BME280;4604;48.616;9.548;2022-10-22T10:42:42;97034.75;;;18.22;75.81
9139;BME280;4604;48.616;9.548;2022-10-22T10:45:17;97056.84;;;18.31;76.87
9139;BME280;4604;48.616;9.548;2022-10-22T10:50:53;97006.66;;;18.26;74.76
9139;BME280;4604;48.616;9.548;2022-10-22T10:53:31;96995.50;;;18.23;75.28
9139;BME280;4604;48.616;9.548;2022-10-22T10:56:21;97043.03;;;18.42;78.83
9139;BME280;4604;48.616;9.548;2022-10-22T10:58:56;96991.72;;;18.32;75.49
9139;BME280;4604;48.616;9.548;2022-10-22T11:01:35;96987.56;;;18.44;74.79
9139;BME280;4604;48.616;9.548;2022-10-22T11:04:23;97002.31;;;18.40;74.56
9139;BME280;4604;48.616;9.548;2022-10-22T11:07:01;97032.72;;;18.54;72.70
9139;BME280;4604;48.616;9.548;2022-10-22T11:09:38;96986.75;;;18.44;74.56
9139;BME280;4604;48.616;9.548;2022-10-22T11:12:12;97061.06;;;18.70;73.65
9139;BME280;4604;48.616;9.548;2022-10-22T11:14:48;97059.25;;;18.85;72.48
9139;BME280;4604;48.616;9.548;2022-10-22T11:17:26;97006.59;;;18.71;72.88
9139;BME280;4604;48.616;9.548;2022-10-22T11:20:05;97020.56;;;18.51;71.59
9139;BME280;4604;48.616;9.548;2022-10-22T11:22:47;97030.09;;;18.60;70.11
9139;BME280;4604;48.616;9.548;2022-10-22T11:25:20;96989.41;;;18.44;71.39
9139;BME280;4604;48.616;9.548;2022-10-22T11:27:52;97025.41;;;18.63;69.60
9139;BME280;4604;48.616;9.548;2022-10-22T11:30:24;96993.41;;;18.69;69.88
9139;BME280;4604;48.616;9.548;2022-10-22T11:32:56;97040.09;;;19.03;68.96
9139;BME280;4604;48.616;9.548;2022-10-22T11:35:31;97054.31;;;19.25;67.62
9139;BME280;4604;48.616;9.548;2022-10-22T11:38:04;97047.63;;;19.14;65.45
9139;BME280;4604;48.616;9.548;2022-10-22T11:40:44;97068.69;;;19.45;65.78
9139;BME280;4604;48.616;9.548;2022-10-22T11:43:28;97002.81;;;19.23;65.06
9139;BME280;4604;48.616;9.548;2022-10-22T11:46:01;97067.03;;;19.66;66.10
9139;BME280;4604;48.616;9.548;2022-10-22T11:48:36;97006.63;;;19.35;65.91
9139;BME280;4604;48.616;9.548;2022-10-22T11:51:33;97038.31;;;19.32;63.51
9139;BME280;4604;48.616;9.548;2022-10-22T11:54:29;96998.31;;;19.02;65.25
9139;BME280;4604;48.616;9.548;2022-10-22T11:57:19;97019.81;;;19.58;67.43
9139;BME280;4604;48.616;9.548;2022-10-22T11:59:51;96996.91;;;19.28;63.76
9139;BME280;4604;48.616;9.548;2022-10-22T12:02:45;96986.75;;;19.23;63.52
9139;BME280;4604;48.616;9.548;2022-10-22T12:05:35;97046.06;;;19.70;64.21
9139;BME280;4604;48.616;9.548;2022-10-22T12:08:22;97007.31;;;19.65;63.36
9139;BME280;4604;48.616;9.548;2022-10-22T12:10:59;97019.50;;;19.68;61.90
9139;BME280;4604;48.616;9.548;2022-10-22T12:13:50;97028.41;;;19.54;60.28
9139;BME280;4604;48.616;9.548;2022-10-22T12:16:23;96988.59;;;19.44;60.30
9139;BME280;4604;48.616;9.548;2022-10-22T12:18:57;96982.91;;;19.54;59.25
9139;BME280;4604;48.616;9.548;2022-10-22T12:21:27;97017.47;;;19.49;57.67
9139;BME280;4604;48.616;9.548;2022-10-22T12:23:55;97007.31;;;19.65;58.80
9139;BME280;4604;48.616;9.548;2022-10-22T12:26:26;97040.28;;;19.94;59.51
9139;BME280;4604;48.616;9.548;2022-10-22T12:29:01;96995.84;;;19.72;56.89
9139;BME280;4604;48.616;9.548;2022-10-22T12:31:34;97004.63;;;19.65;58.01
9139;BME280;4604;48.616;9.548;2022-10-22T12:34:02;97011.53;;;19.53;56.54
9139;BME280;4604;48.616;9.548;2022-10-22T12:36:33;97021.78;;;19.50;56.77
9139;BME280;4604;48.616;9.548;2022-10-22T12:39:10;97039.22;;;19.67;57.69
9139;BME280;4604;48.616;9.548;2022-10-22T12:41:40;97007.03;;;19.60;58.03
9139;BME280;4604;48.616;9.548;2022-10-22T12:44:12;97003.22;;;19.48;57.71
9139;BME280;4604;48.616;9.548;2022-10-22T12:46:44;96969.09;;;19.29;57.75
9139;BME280;4604;48.616;9.548;2022-10-22T12:49:16;97020.75;;;19.72;57.25
9139;BME280;4604;48.616;9.548;2022-10-22T12:51:45;96985.13;;;19.72;58.72
9139;BME280;4604;48.616;9.548;2022-10-22T12:54:23;96992.09;;;20.01;58.08
9139;BME280;4604;48.616;9.548;2022-10-22T12:56:53;96980.06;;;19.83;55.32
9139;BME280;4604;48.616;9.548;2022-10-22T12:59:23;97023.91;;;20.10;54.63
9139;BME280;4604;48.616;9.548;2022-10-22T13:01:51;96996.66;;;20.00;54.66
9139;BME280;4604;48.616;9.548;2022-10-22T13:04:30;96983.22;;;19.65;56.91
9139;BME280;4604;48.616;9.548;2022-10-22T13:07:17;96987.50;;;19.38;55.99
9139;BME280;4604;48.616;9.548;2022-10-22T13:09:46;96994.44;;;19.54;57.11
9139;BME280;4604;48.616;9.548;2022-10-22T13:12:14;96987.47;;;19.32;55.50
9139;BME280;4604;48.616;9.548;2022-10-22T13:14:49;97025.59;;;19.62;56.80
9139;BME280;4604;48.616;9.548;2022-10-22T13:17:18;97016.91;;;19.81;58.13
9139;BME280;4604;48.616;9.548;2022-10-22T13:19:48;97004.97;;;19.84;57.97
9139;BME280;4604;48.616;9.548;2022-10-22T13:22:28;96986.34;;;19.69;56.31
9139;BME280;4604;48.616;9.548;2022-10-22T13:24:56;97020.03;;;19.85;57.25
9139;BME280;4604;48.616;9.548;2022-10-22T13:27:26;96973.69;;;19.63;57.90
9139;BME280;4604;48.616;9.548;2022-10-22T13:29:54;96971.34;;;19.75;59.29
9139;BME280;4604;48.616;9.548;2022-10-22T13:32:27;97017.31;;;20.13;59.52
9139;BME280;4604;48.616;9.548;2022-10-22T13:34:55;97009.09;;;20.15;59.62
9139;BME280;4604;48.616;9.548;2022-10-22T13:37:23;96963.34;;;19.81;55.91
9139;BME280;4604;48.616;9.548;2022-10-22T13:39:50;96997.41;;;19.94;54.71
9139;BME280;4604;48.616;9.548;2022-10-22T13:42:17;97008.47;;;19.78;55.94